createdAt,value
2023-02-12T00:01:28.798Z,17.05
2023-02-12T00:06:24.132Z,16.20
2023-02-12T00:08:52.134Z,15.23
2023-02-12T00:11:21.853Z,17.30
2023-02-12T00:13:49.452Z,16.88
2023-02-12T00:16:18.023Z,15.70
2023-02-12T00:18:46.071Z,16.38
2023-02-12T00:21:14.050Z,18.45
2023-02-12T00:23:41.729Z,16.88
2023-02-12T00:26:10.125Z,16.58
2023-02-12T00:28:38.685Z,17.02
2023-02-12T00:31:07.257Z,16.83
2023-02-12T00:33:34.662Z,16.40
2023-02-12T00:36:01.934Z,16.40
2023-02-12T00:38:29.284Z,18.63
2023-02-12T00:40:56.842Z,16.35
2023-02-12T00:43:24.065Z,18.52
2023-02-12T00:45:51.346Z,17.38
2023-02-12T00:48:20.553Z,17.92
2023-02-12T00:50:48.927Z,16.75
2023-02-12T00:53:16.335Z,16.07
2023-02-12T00:55:43.796Z,16.80
2023-02-12T00:58:11.354Z,16.77
2023-02-12T01:00:38.665Z,20.25
2023-02-12T01:03:06.120Z,14.95
2023-02-12T01:05:33.805Z,17.77
2023-02-12T01:08:01.075Z,17.73
2023-02-12T01:10:28.516Z,17.48
2023-02-12T01:12:56.058Z,15.32
2023-02-12T01:15:23.759Z,17.50
2023-02-12T01:17:54.438Z,17.52
2023-02-12T01:20:23.098Z,17.05
2023-02-12T01:22:50.492Z,16.47
2023-02-12T01:25:20.430Z,18.42
2023-02-12T01:27:47.993Z,16.83
2023-02-12T01:30:16.709Z,16.95
2023-02-12T01:32:44.306Z,15.45
2023-02-12T01:35:12.200Z,15.50
2023-02-12T01:37:41.605Z,17.42
2023-02-12T01:40:09.541Z,17.55
2023-02-12T01:42:36.776Z,14.18
2023-02-12T01:45:13.130Z,17.17
2023-02-12T01:47:41.364Z,17.15
2023-02-12T01:50:09.951Z,15.10
2023-02-12T01:52:39.141Z,17.98
2023-02-12T01:55:08.178Z,16.17
2023-02-12T01:57:37.535Z,15.63
2023-02-12T02:00:06.772Z,17.60
2023-02-12T02:02:41.246Z,16.13
2023-02-12T02:05:08.695Z,16.17
2023-02-12T02:07:36.061Z,17.38
2023-02-12T02:10:04.521Z,15.73
2023-02-12T02:12:50.798Z,16.30
2023-02-12T02:15:18.201Z,16.70
2023-02-12T02:17:54.379Z,16.83
2023-02-12T02:20:26.290Z,19.13
2023-02-12T02:23:26.240Z,19.33
2023-02-12T02:26:12.348Z,16.48
2023-02-12T02:28:52.038Z,17.25
2023-02-12T02:31:23.327Z,16.83
2023-02-12T02:34:03.074Z,18.25
2023-02-12T02:36:33.178Z,19.23
2023-02-12T02:39:00.516Z,19.73
2023-02-12T02:41:30.910Z,16.77
2023-02-12T02:43:58.188Z,17.88
2023-02-12T02:46:28.448Z,19.23
2023-02-12T02:49:03.876Z,19.55
2023-02-12T02:51:45.894Z,19.45
2023-02-12T02:54:26.782Z,19.63
2023-02-12T02:56:56.848Z,18.75
2023-02-12T02:59:27.547Z,20.52
2023-02-12T03:02:00.862Z,21.17
2023-02-12T03:04:32.433Z,22.38
2023-02-12T03:07:14.300Z,19.17
2023-02-12T03:09:47.772Z,19.52
2023-02-12T03:12:18.066Z,18.27
2023-02-12T03:14:47.958Z,22.02
2023-02-12T03:17:24.422Z,20.27
2023-02-12T03:20:11.886Z,22.38
2023-02-12T03:22:41.458Z,19.67
2023-02-12T03:25:16.930Z,21.63
2023-02-12T03:27:54.050Z,21.67
2023-02-12T03:30:22.881Z,21.88
2023-02-12T03:32:58.956Z,18.95
2023-02-12T03:35:32.544Z,19.75
2023-02-12T03:38:04.696Z,19.77
2023-02-12T03:40:35.502Z,20.17
2023-02-12T03:43:08.049Z,23.63
2023-02-12T03:45:41.699Z,21.60
2023-02-12T03:48:21.016Z,21.35
2023-02-12T03:50:59.569Z,23.27
2023-02-12T03:53:27.850Z,21.70
2023-02-12T03:55:58.145Z,20.48
2023-02-12T03:58:27.796Z,19.50
2023-02-12T04:00:55.171Z,19.83
2023-02-12T04:03:22.565Z,22.27
2023-02-12T04:05:49.768Z,21.13
2023-02-12T04:08:17.019Z,21.88
2023-02-12T04:10:53.381Z,22.00
2023-02-12T04:13:50.182Z,22.00
2023-02-12T04:16:27.444Z,18.88
2023-02-12T04:18:54.898Z,18.75
2023-02-12T04:21:28.040Z,20.40
2023-02-12T04:24:03.949Z,22.50
2023-02-12T04:26:43.133Z,21.95
2023-02-12T04:29:16.455Z,19.88
2023-02-12T04:31:46.595Z,19.83
2023-02-12T04:34:16.842Z,20.25
2023-02-12T04:36:54.740Z,20.75
2023-02-12T04:39:23.874Z,21.63
2023-02-12T04:41:51.466Z,20.02
2023-02-12T04:44:20.430Z,20.33
2023-02-12T04:46:47.677Z,18.70
2023-02-12T04:49:16.566Z,18.92
2023-02-12T04:51:44.014Z,23.38
2023-02-12T04:54:11.287Z,20.70
2023-02-12T04:56:38.587Z,18.98
2023-02-12T04:59:05.875Z,20.98
2023-02-12T05:01:36.957Z,19.20
2023-02-12T05:04:04.657Z,20.63
2023-02-12T05:06:32.333Z,19.23
2023-02-12T05:08:59.509Z,19.42
2023-02-12T05:11:26.799Z,18.95
2023-02-12T05:13:54.556Z,18.23
2023-02-12T05:16:22.463Z,18.98
2023-02-12T05:18:49.903Z,19.45
2023-02-12T05:21:17.641Z,18.25
2023-02-12T05:23:44.943Z,18.25
2023-02-12T05:26:14.035Z,18.33
2023-02-12T05:28:41.414Z,17.00
2023-02-12T05:31:09.750Z,18.50
2023-02-12T05:33:37.151Z,20.27
2023-02-12T05:36:08.785Z,18.85
2023-02-12T05:38:36.306Z,18.10
2023-02-12T05:41:04.481Z,16.88
2023-02-12T05:43:32.035Z,17.50
2023-02-12T05:46:00.516Z,18.92
2023-02-12T05:48:27.928Z,17.90
2023-02-12T05:50:55.335Z,18.40
2023-02-12T05:53:22.538Z,17.15
2023-02-12T05:55:49.745Z,17.10
2023-02-12T05:58:16.967Z,18.73
2023-02-12T06:00:44.274Z,18.60
2023-02-12T06:03:11.509Z,18.42
2023-02-12T06:05:38.759Z,18.48
2023-02-12T06:08:06.003Z,17.95
2023-02-12T06:10:33.221Z,18.65
2023-02-12T06:13:00.546Z,17.05
2023-02-12T06:15:27.839Z,18.55
2023-02-12T06:17:55.068Z,18.48
2023-02-12T06:20:22.315Z,17.15
2023-02-12T06:22:49.594Z,17.15
2023-02-12T06:25:16.998Z,17.67
2023-02-12T06:27:44.230Z,18.35
2023-02-12T06:30:12.030Z,16.83
2023-02-12T06:32:39.281Z,17.70
2023-02-12T06:35:06.835Z,16.35
2023-02-12T06:37:36.983Z,19.35
2023-02-12T06:40:04.486Z,17.38
2023-02-12T06:42:33.156Z,15.73
2023-02-12T06:45:00.951Z,16.23
2023-02-12T06:47:28.550Z,17.20
2023-02-12T06:49:55.802Z,17.65
2023-02-12T06:52:23.309Z,17.85
2023-02-12T06:54:50.934Z,17.95
2023-02-12T06:57:18.201Z,18.67
2023-02-12T06:59:45.447Z,17.00
2023-02-12T07:02:12.674Z,18.15
2023-02-12T07:04:40.094Z,17.80
2023-02-12T07:07:07.599Z,17.48
2023-02-12T07:09:34.927Z,19.02
2023-02-12T07:12:02.317Z,18.63
2023-02-12T07:14:29.605Z,17.08
2023-02-12T07:16:57.442Z,17.40
2023-02-12T07:19:24.950Z,17.75
2023-02-12T07:21:52.152Z,16.70
2023-02-12T07:24:19.391Z,19.10
2023-02-12T07:26:46.669Z,18.40
2023-02-12T07:29:14.202Z,16.70
2023-02-12T07:31:41.764Z,17.60
2023-02-12T07:34:10.608Z,15.75
2023-02-12T07:36:38.162Z,17.20
2023-02-12T07:39:05.820Z,16.10
2023-02-12T07:41:34.172Z,15.75
2023-02-12T07:44:04.481Z,18.00
2023-02-12T07:46:32.930Z,15.15
2023-02-12T07:49:01.478Z,15.30
2023-02-12T07:51:29.113Z,16.67
2023-02-12T07:53:56.734Z,15.60
2023-02-12T07:56:25.512Z,15.48
2023-02-12T07:58:53.354Z,16.30
2023-02-12T08:01:22.304Z,15.27
2023-02-12T08:03:50.290Z,15.43
2023-02-12T08:06:22.957Z,15.50
2023-02-12T08:08:54.523Z,14.50
2023-02-12T08:11:22.319Z,15.45
2023-02-12T08:13:49.561Z,15.15
2023-02-12T08:16:18.678Z,16.83
2023-02-12T08:18:46.419Z,15.00
2023-02-12T08:21:15.171Z,14.10
2023-02-12T08:23:42.932Z,14.60
2023-02-12T08:26:11.693Z,14.63
2023-02-12T08:28:40.255Z,13.55
2023-02-12T08:31:09.493Z,14.45
2023-02-12T08:33:36.856Z,14.57
2023-02-12T08:36:09.874Z,14.48
2023-02-12T08:38:37.306Z,14.40
2023-02-12T08:41:06.386Z,14.43
2023-02-12T08:43:33.754Z,13.25
2023-02-12T08:46:24.485Z,14.60
2023-02-12T08:48:58.891Z,15.38
2023-02-12T08:51:27.984Z,15.00
2023-02-12T08:53:56.724Z,15.07
2023-02-12T08:56:24.332Z,14.60
2023-02-12T08:58:51.832Z,15.18
2023-02-12T09:01:23.309Z,16.55
2023-02-12T09:03:51.096Z,15.07
2023-02-12T09:06:19.622Z,15.50
2023-02-12T09:08:47.063Z,15.02
2023-02-12T09:11:16.588Z,17.58
2023-02-12T09:13:44.683Z,16.75
2023-02-12T09:16:11.981Z,14.95
2023-02-12T09:18:39.410Z,15.50
2023-02-12T09:21:10.571Z,16.90
2023-02-12T09:23:38.317Z,15.77
2023-02-12T09:26:09.387Z,16.52
2023-02-12T09:28:37.309Z,16.70
2023-02-12T09:31:12.007Z,17.77
2023-02-12T09:33:39.763Z,17.55
2023-02-12T09:36:08.924Z,18.35
2023-02-12T09:38:36.401Z,17.75
2023-02-12T09:41:03.701Z,17.02
2023-02-12T09:43:52.952Z,16.88
2023-02-12T09:48:54.876Z,15.65
2023-02-12T09:51:23.153Z,15.80
2023-02-12T09:54:02.038Z,15.55
2023-02-12T09:56:29.433Z,15.23
2023-02-12T09:59:00.434Z,16.52
2023-02-12T10:01:28.494Z,14.95
2023-02-12T10:03:56.264Z,14.48
2023-02-12T10:06:27.629Z,15.52
2023-02-12T10:09:15.373Z,16.33
2023-02-12T10:11:45.401Z,15.32
2023-02-12T10:14:31.396Z,14.43
2023-02-12T10:17:01.493Z,14.95
2023-02-12T10:19:28.705Z,16.73
2023-02-12T10:22:14.869Z,16.23
2023-02-12T10:24:42.162Z,15.90
2023-02-12T10:27:15.196Z,15.80
2023-02-12T10:29:43.832Z,15.85
2023-02-12T10:32:15.887Z,18.33
2023-02-12T10:34:43.327Z,17.13
2023-02-12T10:37:13.383Z,18.20
2023-02-12T10:39:48.674Z,17.48
2023-02-12T10:42:17.728Z,19.25
2023-02-12T10:44:45.116Z,18.98
2023-02-12T10:47:22.775Z,17.30
2023-02-12T10:49:56.864Z,16.67
2023-02-12T10:52:24.171Z,16.40
2023-02-12T10:54:51.573Z,15.27
2023-02-12T10:57:18.753Z,20.48
2023-02-12T10:59:46.875Z,16.77
2023-02-12T11:02:20.216Z,16.73
2023-02-12T11:04:47.514Z,15.75
2023-02-12T11:07:14.928Z,14.85
2023-02-12T11:09:46.788Z,17.92
2023-02-12T11:12:25.927Z,18.05
2023-02-12T11:14:54.055Z,18.23
2023-02-12T11:17:26.198Z,15.82
2023-02-12T11:20:25.825Z,17.48
2023-02-12T11:22:59.341Z,15.38
2023-02-12T11:25:31.050Z,16.38
2023-02-12T11:28:01.377Z,14.65
2023-02-12T11:30:29.467Z,16.27
2023-02-12T11:33:15.208Z,15.27
2023-02-12T11:35:59.644Z,15.05
2023-02-12T11:38:28.803Z,14.60
2023-02-12T11:40:58.540Z,15.05
2023-02-12T11:43:27.567Z,13.60
2023-02-12T11:45:56.538Z,14.18
2023-02-12T11:48:26.466Z,13.65
2023-02-12T11:50:55.150Z,12.68
2023-02-12T11:53:31.144Z,13.07
2023-02-12T11:56:00.526Z,14.40
2023-02-12T11:58:28.553Z,15.32
2023-02-12T12:01:02.255Z,13.35
2023-02-12T12:03:34.706Z,13.82
2023-02-12T12:06:05.800Z,12.80
2023-02-12T12:08:59.366Z,14.63
2023-02-12T12:11:26.614Z,15.25
2023-02-12T12:14:09.237Z,15.63
2023-02-12T12:17:02.127Z,14.73
2023-02-12T12:19:52.528Z,14.63
2023-02-12T12:22:19.936Z,13.38
2023-02-12T12:25:07.555Z,13.30
2023-02-12T12:28:02.556Z,16.13
2023-02-12T12:30:33.158Z,14.10
2023-02-12T12:33:01.620Z,13.52
2023-02-12T12:36:02.069Z,12.85
2023-02-12T12:38:37.901Z,14.82
2023-02-12T12:41:35.101Z,13.90
2023-02-12T12:44:02.417Z,15.02
2023-02-12T12:46:44.035Z,14.07
2023-02-12T12:49:20.522Z,12.90
2023-02-12T12:52:00.144Z,13.15
2023-02-12T12:54:33.778Z,13.85
2023-02-12T12:57:06.868Z,13.23
2023-02-12T12:59:46.388Z,13.13
2023-02-12T13:02:13.691Z,12.63
2023-02-12T13:04:56.457Z,12.73
2023-02-12T13:07:32.736Z,13.30
2023-02-12T13:10:16.343Z,13.02
2023-02-12T13:12:55.087Z,12.35
2023-02-12T13:15:28.528Z,12.50
2023-02-12T13:18:01.668Z,12.80
2023-02-12T13:20:47.942Z,11.90
2023-02-12T13:23:37.960Z,12.70
2023-02-12T13:26:30.871Z,12.23
2023-02-12T13:29:13.044Z,12.45
2023-02-12T13:31:46.855Z,13.07
2023-02-12T13:34:15.150Z,11.88
2023-02-12T13:36:42.647Z,11.82
2023-02-12T13:39:19.550Z,13.18
2023-02-12T13:41:50.079Z,11.70
2023-02-12T13:44:37.808Z,11.73
2023-02-12T13:47:05.075Z,10.93
2023-02-12T13:49:46.139Z,12.43
2023-02-12T13:52:30.328Z,12.00
2023-02-12T13:55:00.702Z,11.63
2023-02-12T13:57:28.289Z,11.43
2023-02-12T13:59:58.368Z,11.02
2023-02-12T14:02:28.668Z,10.98
2023-02-12T14:05:14.745Z,11.45
2023-02-12T14:07:42.038Z,11.68
2023-02-12T14:10:19.704Z,11.90
2023-02-12T14:12:47.186Z,10.63
2023-02-12T14:15:17.542Z,12.63
2023-02-12T14:18:08.052Z,11.23
2023-02-12T14:20:36.625Z,11.85
2023-02-12T14:23:22.729Z,11.23
2023-02-12T14:25:56.716Z,11.43
2023-02-12T14:28:27.751Z,11.27
2023-02-12T14:31:14.019Z,10.50
2023-02-12T14:33:41.520Z,10.25
2023-02-12T14:36:15.014Z,10.73
2023-02-12T14:38:47.519Z,11.48
2023-02-12T14:41:37.693Z,10.98
2023-02-12T14:44:22.738Z,11.68
2023-02-12T14:46:57.460Z,11.80
2023-02-12T14:49:26.549Z,10.80
2023-02-12T14:52:04.930Z,11.15
2023-02-12T14:54:37.861Z,11.73
2023-02-12T14:57:10.017Z,12.05
2023-02-12T14:59:41.201Z,10.95
2023-02-12T15:02:13.761Z,10.75
2023-02-12T15:04:45.751Z,12.35
2023-02-12T15:07:17.191Z,12.20
2023-02-12T15:09:52.240Z,12.23
2023-02-12T15:12:31.298Z,11.73
2023-02-12T15:15:16.574Z,11.73
2023-02-12T15:17:49.644Z,12.52
2023-02-12T15:20:23.131Z,14.15
2023-02-12T15:22:50.581Z,14.05
2023-02-12T15:25:31.954Z,14.05
2023-02-12T15:28:19.704Z,10.35
2023-02-12T15:30:47.128Z,13.27
2023-02-12T15:33:23.718Z,11.38
2023-02-12T15:35:51.048Z,12.90
2023-02-12T15:38:22.871Z,11.65
2023-02-12T15:40:57.290Z,11.48
2023-02-12T15:43:27.048Z,10.98
2023-02-12T15:45:54.479Z,13.10
2023-02-12T15:48:23.306Z,13.40
2023-02-12T15:50:54.287Z,13.75
2023-02-12T15:53:22.944Z,14.40
2023-02-12T15:55:50.586Z,13.35
2023-02-12T15:58:28.843Z,13.15
2023-02-12T16:01:01.081Z,16.10
2023-02-12T16:03:31.765Z,16.90
2023-02-12T16:06:11.307Z,17.00
2023-02-12T16:08:39.710Z,15.15
2023-02-12T16:11:14.036Z,15.43
2023-02-12T16:13:44.774Z,15.52
2023-02-12T16:16:15.206Z,16.58
2023-02-12T16:18:43.350Z,16.60
2023-02-12T16:21:10.640Z,15.73
2023-02-12T16:23:38.373Z,16.20
2023-02-12T16:26:06.110Z,16.95
2023-02-12T16:28:33.732Z,19.15
2023-02-12T16:31:09.377Z,17.20
2023-02-12T16:33:45.489Z,17.05
2023-02-12T16:36:24.782Z,17.40
2023-02-12T16:41:25.487Z,17.50
2023-02-12T16:44:02.058Z,16.52
2023-02-12T16:46:30.514Z,19.67
2023-02-12T16:48:59.105Z,19.13
2023-02-12T16:51:26.457Z,18.33
2023-02-12T16:53:57.506Z,19.77
2023-02-12T16:56:26.363Z,18.35
2023-02-12T16:59:02.817Z,18.88
2023-02-12T17:01:34.598Z,18.60
2023-02-12T17:04:04.966Z,18.45
2023-02-12T17:06:32.407Z,18.90
2023-02-12T17:09:00.264Z,20.38
2023-02-12T17:11:28.434Z,21.13
2023-02-12T17:13:56.669Z,20.50
2023-02-12T17:16:32.277Z,22.13
2023-02-12T17:19:00.430Z,22.75
2023-02-12T17:21:39.534Z,21.40
2023-02-12T17:24:07.131Z,23.15
2023-02-12T17:26:34.539Z,21.23
2023-02-12T17:29:05.390Z,21.88
2023-02-12T17:31:33.694Z,19.38
2023-02-12T17:34:01.301Z,22.83
2023-02-12T17:36:28.606Z,19.20
2023-02-12T17:38:55.823Z,18.42
2023-02-12T17:41:24.589Z,20.77
2023-02-12T17:43:51.865Z,20.48
2023-02-12T17:46:20.931Z,19.90
2023-02-12T17:48:48.508Z,19.95
2023-02-12T17:51:16.388Z,21.17
2023-02-12T17:53:44.048Z,19.88
2023-02-12T17:56:15.287Z,22.95
2023-02-12T17:58:42.714Z,21.40
2023-02-12T18:01:10.967Z,22.23
2023-02-12T18:03:38.830Z,22.30
2023-02-12T18:06:07.001Z,21.13
2023-02-12T18:08:34.623Z,20.08
2023-02-12T18:11:08.816Z,22.17
2023-02-12T18:13:36.141Z,21.02
2023-02-12T18:16:07.175Z,20.23
2023-02-12T18:18:34.835Z,23.98
2023-02-12T18:21:02.258Z,21.27
2023-02-12T18:23:29.539Z,22.50
2023-02-12T18:25:56.818Z,23.67
2023-02-12T18:28:24.079Z,24.10
2023-02-12T18:30:58.649Z,23.38
2023-02-12T18:33:26.535Z,23.30
2023-02-12T18:36:00.053Z,21.05
2023-02-12T18:38:27.619Z,20.17
2023-02-12T18:40:55.375Z,19.67
2023-02-12T18:43:24.664Z,20.40
2023-02-12T18:45:54.121Z,21.60
2023-02-12T18:48:22.130Z,21.98
2023-02-12T18:50:51.775Z,25.25
2023-02-12T18:53:19.382Z,25.38
2023-02-12T18:55:46.715Z,21.02
2023-02-12T18:58:17.422Z,24.52
2023-02-12T19:00:47.012Z,21.05
2023-02-12T19:03:17.738Z,21.35
2023-02-12T19:05:45.170Z,22.15
2023-02-12T19:08:12.494Z,17.83
2023-02-12T19:10:40.323Z,21.17
2023-02-12T19:13:07.722Z,22.35
2023-02-12T19:15:35.141Z,20.20
2023-02-12T19:18:02.537Z,21.15
2023-02-12T19:20:29.769Z,26.00
2023-02-12T19:22:57.104Z,20.27
2023-02-12T19:25:25.229Z,20.38
2023-02-12T19:27:52.563Z,19.08
2023-02-12T19:30:19.875Z,20.63
2023-02-12T19:32:47.285Z,21.42
2023-02-12T19:35:14.633Z,23.92
2023-02-12T19:37:42.065Z,20.17
2023-02-12T19:40:09.501Z,19.33
2023-02-12T19:42:36.824Z,23.00
2023-02-12T19:45:04.225Z,22.73
2023-02-12T19:47:31.507Z,23.05
2023-02-12T19:49:58.795Z,22.90
2023-02-12T19:52:26.052Z,23.05
2023-02-12T19:54:53.620Z,24.15
2023-02-12T19:57:21.023Z,21.67
2023-02-12T19:59:48.575Z,23.42
2023-02-12T20:02:16.009Z,22.63
2023-02-12T20:04:43.574Z,23.38
2023-02-12T20:07:10.923Z,21.02
2023-02-12T20:09:38.293Z,21.90
2023-02-12T20:12:05.601Z,24.38
2023-02-12T20:14:32.939Z,26.40
2023-02-12T20:17:00.665Z,22.52
2023-02-12T20:19:30.025Z,22.95
2023-02-12T20:24:26.343Z,22.75
2023-02-12T20:26:54.161Z,24.15
2023-02-12T20:29:22.208Z,23.80
2023-02-12T20:31:49.916Z,24.80
2023-02-12T20:34:18.186Z,24.30
2023-02-12T20:36:46.328Z,23.98
2023-02-12T20:39:15.287Z,25.77
2023-02-12T20:41:43.529Z,26.45
2023-02-12T20:44:14.438Z,27.40
2023-02-12T20:46:45.707Z,26.95
2023-02-12T20:49:15.597Z,25.48
2023-02-12T20:51:45.010Z,25.63
2023-02-12T20:54:14.751Z,25.65
2023-02-12T20:56:42.447Z,26.77
2023-02-12T20:59:09.780Z,25.15
2023-02-12T21:01:37.857Z,26.45
2023-02-12T21:04:06.987Z,25.95
2023-02-12T21:06:34.247Z,22.73
2023-02-12T21:09:01.841Z,23.60
2023-02-12T21:11:30.160Z,26.27
2023-02-12T21:14:02.498Z,23.33
2023-02-12T21:16:30.226Z,23.15
2023-02-12T21:18:57.796Z,24.73
2023-02-12T21:21:29.188Z,25.10
2023-02-12T21:23:58.181Z,26.08
2023-02-12T21:26:28.073Z,25.75
2023-02-12T21:28:57.857Z,25.73
2023-02-12T21:31:28.102Z,23.42
2023-02-12T21:33:57.937Z,24.58
2023-02-12T21:36:30.885Z,23.40
2023-02-12T21:38:59.873Z,27.00
2023-02-12T21:41:36.189Z,24.35
2023-02-12T21:44:05.709Z,26.13
2023-02-12T21:46:35.423Z,25.13
2023-02-12T21:49:03.327Z,27.73
2023-02-12T21:51:31.716Z,28.15
2023-02-12T21:54:00.777Z,29.07
2023-02-12T21:56:28.530Z,27.42
2023-02-12T21:58:55.971Z,26.63
2023-02-12T22:01:26.676Z,26.33
2023-02-12T22:03:55.010Z,26.63
2023-02-12T22:06:23.309Z,25.88
2023-02-12T22:08:50.860Z,25.90
2023-02-12T22:11:18.371Z,26.95
2023-02-12T22:13:45.666Z,27.23
2023-02-12T22:16:19.052Z,25.48
2023-02-12T22:18:46.853Z,27.55
2023-02-12T22:21:15.036Z,27.15
2023-02-12T22:23:43.386Z,26.70
2023-02-12T22:26:18.730Z,28.90
2023-02-12T22:28:47.784Z,26.92
2023-02-12T22:31:22.219Z,28.50
2023-02-12T22:33:51.655Z,27.35
2023-02-12T22:36:22.304Z,28.17
2023-02-12T22:38:51.337Z,26.45
2023-02-12T22:41:20.098Z,27.30
2023-02-12T22:43:49.170Z,25.73
2023-02-12T22:46:18.095Z,27.33
2023-02-12T22:48:47.416Z,29.60
2023-02-12T22:53:51.208Z,25.98
2023-02-12T22:56:19.863Z,26.20
2023-02-12T22:58:49.045Z,28.05
2023-02-12T23:01:20.063Z,31.30
2023-02-12T23:03:48.394Z,28.40
2023-02-12T23:06:19.023Z,26.52
2023-02-12T23:08:52.075Z,29.42
2023-02-12T23:11:22.290Z,25.42
2023-02-12T23:13:53.560Z,25.90
2023-02-12T23:16:24.118Z,26.80
2023-02-12T23:18:56.041Z,29.33
2023-02-12T23:21:25.335Z,27.35
2023-02-12T23:23:54.495Z,26.42
2023-02-12T23:26:29.280Z,26.35
2023-02-12T23:28:57.932Z,25.80
2023-02-12T23:31:33.159Z,25.05
2023-02-12T23:34:00.853Z,25.38
2023-02-12T23:36:29.125Z,24.85
2023-02-12T23:38:56.441Z,24.90
2023-02-12T23:41:23.768Z,23.88
2023-02-12T23:43:51.111Z,23.63
2023-02-12T23:46:18.422Z,24.35
2023-02-12T23:48:45.876Z,26.92
2023-02-12T23:51:13.356Z,24.20
2023-02-12T23:53:40.712Z,24.67
2023-02-12T23:56:08.082Z,24.80
2023-02-12T23:58:35.425Z,25.40
